首页
METAR-TAF:

METAR-TAF

机场 :

夏洛特顿, 愛德華王子島, 加拿大

纬度: 46-17N, 经度: 063-08W, 海拔: 48米

当前天气观测

该预报发布于1小时和9分钟前的01:00 UTC
风速4节,风向
温度 15°C
湿度 55%
气压 1014 hPa
能見度: 24.1公里
散云层高于25000英尺

METAR: CYYG 210100Z 18004KT 15SM SCT250 15/06 A2995 RMK CI4 SLP144

时间: 23:09 (02:09 UTC)

预报

该预报发布于2小时和29分钟前的23:40 UTC
预报有效从21日的 00点(UTC)到 21日的 12点(UTC)
风速8节,风向
能見度: 10公里
少量云层高于4000英尺
少量云层高于24000英尺
成为
从 21日的 04点(UTC)到 21日的 06点(UTC)
风速10节,风向南转西南

TAF: CYYG 202340Z 2100/2112 17008KT P6SM FEW040 FEW240 BECMG 2104/2106 21010KT RMK NXT FCST BY 210600Z

超过4000个机场的气象观测和天气预报(METAR&TAF报告)。

可查询的气象台以黄色和红色小点在地图上表示。

将鼠标移到小点上方,可查看气象台名称。

然后点击查看天气观测和预报。

如需切换地图:点击带黑十字的绿色按钮放大地图;点击带横线的绿色按钮缩小地图;或者点击绿色箭头查看邻近地区的地图。


METAR-TAF: